sensor_id;sensor_type;location;lat;lon;timestamp;P1;durP1;ratioP1;P2;durP2;ratioP2
5209;SDS011;2624;48.048;11.706;2023-06-22T00:04:57;11.90;;;2.73;;
5209;SDS011;2624;48.048;11.706;2023-06-22T00:09:59;4.73;;;2.70;;
5209;SDS011;2624;48.048;11.706;2023-06-22T00:15:02;6.47;;;3.00;;
5209;SDS011;2624;48.048;11.706;2023-06-22T00:20:05;4.17;;;3.17;;
5209;SDS011;2624;48.048;11.706;2023-06-22T00:25:10;5.27;;;3.13;;
5209;SDS011;2624;48.048;11.706;2023-06-22T00:30:14;10.30;;;2.80;;
5209;SDS011;2624;48.048;11.706;2023-06-22T00:35:17;6.57;;;3.30;;
5209;SDS011;2624;48.048;11.706;2023-06-22T00:40:19;4.10;;;3.13;;
5209;SDS011;2624;48.048;11.706;2023-06-22T00:45:23;12.63;;;4.60;;
5209;SDS011;2624;48.048;11.706;2023-06-22T00:50:27;5.83;;;3.30;;
5209;SDS011;2624;48.048;11.706;2023-06-22T00:55:33;9.57;;;3.90;;
5209;SDS011;2624;48.048;11.706;2023-06-22T01:00:40;7.73;;;2.97;;
5209;SDS011;2624;48.048;11.706;2023-06-22T01:05:42;10.27;;;3.57;;
5209;SDS011;2624;48.048;11.706;2023-06-22T01:10:47;13.40;;;3.70;;
5209;SDS011;2624;48.048;11.706;2023-06-22T01:15:55;10.63;;;3.80;;
5209;SDS011;2624;48.048;11.706;2023-06-22T01:21:01;10.10;;;4.23;;
5209;SDS011;2624;48.048;11.706;2023-06-22T01:26:11;17.30;;;4.20;;
5209;SDS011;2624;48.048;11.706;2023-06-22T01:31:22;5.80;;;3.40;;
5209;SDS011;2624;48.048;11.706;2023-06-22T01:36:26;8.80;;;3.70;;
5209;SDS011;2624;48.048;11.706;2023-06-22T01:41:30;4.30;;;3.80;;
5209;SDS011;2624;48.048;11.706;2023-06-22T01:46:36;6.23;;;3.83;;
5209;SDS011;2624;48.048;11.706;2023-06-22T01:51:39;6.03;;;3.93;;
5209;SDS011;2624;48.048;11.706;2023-06-22T01:56:41;6.10;;;4.30;;
5209;SDS011;2624;48.048;11.706;2023-06-22T02:01:47;11.43;;;3.37;;
5209;SDS011;2624;48.048;11.706;2023-06-22T02:06:55;7.13;;;4.50;;
5209;SDS011;2624;48.048;11.706;2023-06-22T02:11:59;12.83;;;4.90;;
5209;SDS011;2624;48.048;11.706;2023-06-22T02:17:05;6.33;;;4.53;;
5209;SDS011;2624;48.048;11.706;2023-06-22T02:22:09;9.00;;;5.00;;
5209;SDS011;2624;48.048;11.706;2023-06-22T02:27:12;7.07;;;5.33;;
5209;SDS011;2624;48.048;11.706;2023-06-22T02:32:15;9.50;;;5.60;;
5209;SDS011;2624;48.048;11.706;2023-06-22T02:37:17;18.43;;;5.30;;
5209;SDS011;2624;48.048;11.706;2023-06-22T02:42:19;8.67;;;4.53;;
5209;SDS011;2624;48.048;11.706;2023-06-22T02:47:23;11.10;;;4.60;;
5209;SDS011;2624;48.048;11.706;2023-06-22T02:52:24;9.27;;;4.23;;
5209;SDS011;2624;48.048;11.706;2023-06-22T02:57:26;11.00;;;4.60;;
5209;SDS011;2624;48.048;11.706;2023-06-22T03:02:29;8.73;;;4.67;;
5209;SDS011;2624;48.048;11.706;2023-06-22T03:07:31;11.60;;;4.70;;
5209;SDS011;2624;48.048;11.706;2023-06-22T03:12:33;9.60;;;4.50;;
5209;SDS011;2624;48.048;11.706;2023-06-22T03:17:36;9.60;;;4.40;;
5209;SDS011;2624;48.048;11.706;2023-06-22T03:22:39;7.30;;;4.20;;
5209;SDS011;2624;48.048;11.706;2023-06-22T03:27:42;7.30;;;4.73;;
5209;SDS011;2624;48.048;11.706;2023-06-22T03:32:46;8.60;;;3.90;;
5209;SDS011;2624;48.048;11.706;2023-06-22T03:37:47;10.60;;;4.70;;
5209;SDS011;2624;48.048;11.706;2023-06-22T03:42:49;12.00;;;5.00;;
5209;SDS011;2624;48.048;11.706;2023-06-22T03:47:52;9.47;;;5.87;;
5209;SDS011;2624;48.048;11.706;2023-06-22T03:52:54;14.10;;;5.50;;
5209;SDS011;2624;48.048;11.706;2023-06-22T03:57:56;10.93;;;4.77;;
5209;SDS011;2624;48.048;11.706;2023-06-22T04:02:59;8.53;;;4.80;;
5209;SDS011;2624;48.048;11.706;2023-06-22T04:08:01;5.30;;;4.47;;
5209;SDS011;2624;48.048;11.706;2023-06-22T04:13:03;5.83;;;5.30;;
5209;SDS011;2624;48.048;11.706;2023-06-22T04:18:06;6.77;;;4.43;;
5209;SDS011;2624;48.048;11.706;2023-06-22T04:23:08;8.30;;;4.13;;
5209;SDS011;2624;48.048;11.706;2023-06-22T04:28:10;8.83;;;4.47;;
5209;SDS011;2624;48.048;11.706;2023-06-22T04:33:14;15.70;;;6.80;;
5209;SDS011;2624;48.048;11.706;2023-06-22T04:38:16;7.13;;;4.33;;
5209;SDS011;2624;48.048;11.706;2023-06-22T04:43:18;19.53;;;5.00;;
5209;SDS011;2624;48.048;11.706;2023-06-22T04:48:21;8.30;;;4.27;;
5209;SDS011;2624;48.048;11.706;2023-06-22T04:53:23;11.17;;;5.23;;
5209;SDS011;2624;48.048;11.706;2023-06-22T04:58:25;10.23;;;5.83;;
5209;SDS011;2624;48.048;11.706;2023-06-22T05:03:30;15.73;;;6.67;;
5209;SDS011;2624;48.048;11.706;2023-06-22T05:08:31;9.03;;;6.13;;
5209;SDS011;2624;48.048;11.706;2023-06-22T05:13:33;10.93;;;5.47;;
5209;SDS011;2624;48.048;11.706;2023-06-22T05:18:36;9.80;;;6.07;;
5209;SDS011;2624;48.048;11.706;2023-06-22T05:23:38;10.37;;;6.43;;
5209;SDS011;2624;48.048;11.706;2023-06-22T05:28:40;13.40;;;7.20;;
5209;SDS011;2624;48.048;11.706;2023-06-22T05:33:43;13.93;;;6.40;;
5209;SDS011;2624;48.048;11.706;2023-06-22T05:38:45;9.10;;;5.90;;
5209;SDS011;2624;48.048;11.706;2023-06-22T05:43:47;9.97;;;5.83;;
5209;SDS011;2624;48.048;11.706;2023-06-22T05:48:50;9.27;;;6.60;;
5209;SDS011;2624;48.048;11.706;2023-06-22T05:53:52;13.23;;;6.03;;
5209;SDS011;2624;48.048;11.706;2023-06-22T05:58:53;10.63;;;5.33;;
5209;SDS011;2624;48.048;11.706;2023-06-22T06:03:57;16.73;;;5.73;;
5209;SDS011;2624;48.048;11.706;2023-06-22T06:08:58;10.40;;;5.80;;
5209;SDS011;2624;48.048;11.706;2023-06-22T06:14:00;11.63;;;6.53;;
5209;SDS011;2624;48.048;11.706;2023-06-22T06:19:03;18.43;;;6.20;;
5209;SDS011;2624;48.048;11.706;2023-06-22T06:24:05;9.70;;;5.67;;
5209;SDS011;2624;48.048;11.706;2023-06-22T06:29:07;16.83;;;7.23;;
5209;SDS011;2624;48.048;11.706;2023-06-22T06:34:10;21.50;;;6.77;;
5209;SDS011;2624;48.048;11.706;2023-06-22T06:39:12;10.43;;;5.77;;
5209;SDS011;2624;48.048;11.706;2023-06-22T06:44:13;13.63;;;6.07;;
5209;SDS011;2624;48.048;11.706;2023-06-22T06:49:16;15.70;;;6.27;;
5209;SDS011;2624;48.048;11.706;2023-06-22T06:54:18;17.77;;;5.47;;
5209;SDS011;2624;48.048;11.706;2023-06-22T06:59:20;10.63;;;6.07;;
5209;SDS011;2624;48.048;11.706;2023-06-22T07:04:23;13.23;;;6.40;;
5209;SDS011;2624;48.048;11.706;2023-06-22T07:09:25;16.60;;;6.37;;
5209;SDS011;2624;48.048;11.706;2023-06-22T07:14:27;12.77;;;6.10;;
5209;SDS011;2624;48.048;11.706;2023-06-22T07:19:30;17.70;;;5.73;;
5209;SDS011;2624;48.048;11.706;2023-06-22T07:24:33;9.37;;;6.07;;
5209;SDS011;2624;48.048;11.706;2023-06-22T07:29:35;19.13;;;5.97;;
5209;SDS011;2624;48.048;11.706;2023-06-22T07:34:41;16.20;;;7.07;;
5209;SDS011;2624;48.048;11.706;2023-06-22T07:39:43;20.83;;;5.90;;
5209;SDS011;2624;48.048;11.706;2023-06-22T07:44:45;11.87;;;6.93;;
5209;SDS011;2624;48.048;11.706;2023-06-22T07:49:48;9.40;;;5.70;;
5209;SDS011;2624;48.048;11.706;2023-06-22T07:54:49;16.67;;;6.30;;
5209;SDS011;2624;48.048;11.706;2023-06-22T07:59:51;8.83;;;5.90;;
5209;SDS011;2624;48.048;11.706;2023-06-22T08:04:54;16.17;;;6.40;;
5209;SDS011;2624;48.048;11.706;2023-06-22T08:09:56;19.27;;;6.97;;
5209;SDS011;2624;48.048;11.706;2023-06-22T08:14:58;12.67;;;6.70;;
5209;SDS011;2624;48.048;11.706;2023-06-22T08:20:01;18.27;;;6.20;;
5209;SDS011;2624;48.048;11.706;2023-06-22T08:25:09;11.10;;;5.90;;
5209;SDS011;2624;48.048;11.706;2023-06-22T08:30:11;12.60;;;6.20;;
5209;SDS011;2624;48.048;11.706;2023-06-22T08:35:15;14.23;;;7.47;;
5209;SDS011;2624;48.048;11.706;2023-06-22T08:40:16;18.50;;;7.77;;
5209;SDS011;2624;48.048;11.706;2023-06-22T08:45:19;14.30;;;7.50;;
5209;SDS011;2624;48.048;11.706;2023-06-22T08:50:22;15.80;;;7.10;;
5209;SDS011;2624;48.048;11.706;2023-06-22T08:55:24;15.57;;;7.40;;
5209;SDS011;2624;48.048;11.706;2023-06-22T09:00:26;12.77;;;6.27;;
5209;SDS011;2624;48.048;11.706;2023-06-22T09:05:30;29.73;;;7.07;;
5209;SDS011;2624;48.048;11.706;2023-06-22T09:10:32;25.87;;;6.77;;
5209;SDS011;2624;48.048;11.706;2023-06-22T09:15:34;19.17;;;7.00;;
5209;SDS011;2624;48.048;11.706;2023-06-22T09:20:37;12.17;;;6.70;;
5209;SDS011;2624;48.048;11.706;2023-06-22T09:25:39;16.93;;;6.30;;
5209;SDS011;2624;48.048;11.706;2023-06-22T09:30:42;7.50;;;6.10;;
5209;SDS011;2624;48.048;11.706;2023-06-22T09:35:46;19.93;;;6.67;;
5209;SDS011;2624;48.048;11.706;2023-06-22T09:40:48;10.80;;;6.60;;
5209;SDS011;2624;48.048;11.706;2023-06-22T09:45:49;16.20;;;6.10;;
5209;SDS011;2624;48.048;11.706;2023-06-22T09:50:52;11.53;;;6.47;;
5209;SDS011;2624;48.048;11.706;2023-06-22T09:55:54;15.07;;;6.90;;
5209;SDS011;2624;48.048;11.706;2023-06-22T10:00:57;15.87;;;5.73;;
5209;SDS011;2624;48.048;11.706;2023-06-22T10:06:00;19.63;;;6.80;;
5209;SDS011;2624;48.048;11.706;2023-06-22T10:11:02;16.83;;;7.20;;
5209;SDS011;2624;48.048;11.706;2023-06-22T10:16:04;22.13;;;6.60;;
5209;SDS011;2624;48.048;11.706;2023-06-22T10:21:08;23.50;;;6.80;;
5209;SDS011;2624;48.048;11.706;2023-06-22T10:26:10;25.53;;;6.10;;
5209;SDS011;2624;48.048;11.706;2023-06-22T10:31:11;11.70;;;5.43;;
5209;SDS011;2624;48.048;11.706;2023-06-22T10:36:15;13.17;;;6.70;;
5209;SDS011;2624;48.048;11.706;2023-06-22T10:41:17;15.07;;;5.70;;
5209;SDS011;2624;48.048;11.706;2023-06-22T10:46:18;23.67;;;6.60;;
5209;SDS011;2624;48.048;11.706;2023-06-22T10:51:22;13.03;;;5.40;;
5209;SDS011;2624;48.048;11.706;2023-06-22T10:56:23;15.17;;;5.90;;
5209;SDS011;2624;48.048;11.706;2023-06-22T11:01:25;19.27;;;6.53;;
5209;SDS011;2624;48.048;11.706;2023-06-22T11:06:29;27.73;;;5.77;;
5209;SDS011;2624;48.048;11.706;2023-06-22T11:11:32;23.23;;;6.33;;
5209;SDS011;2624;48.048;11.706;2023-06-22T11:16:34;24.00;;;5.10;;
5209;SDS011;2624;48.048;11.706;2023-06-22T11:21:37;16.07;;;5.63;;
5209;SDS011;2624;48.048;11.706;2023-06-22T11:26:39;14.23;;;5.50;;
5209;SDS011;2624;48.048;11.706;2023-06-22T11:31:40;24.90;;;6.37;;
5209;SDS011;2624;48.048;11.706;2023-06-22T11:36:44;16.07;;;5.50;;
5209;SDS011;2624;48.048;11.706;2023-06-22T11:41:48;14.07;;;6.17;;
5209;SDS011;2624;48.048;11.706;2023-06-22T11:46:49;16.00;;;5.47;;
5209;SDS011;2624;48.048;11.706;2023-06-22T11:51:53;12.53;;;5.67;;
5209;SDS011;2624;48.048;11.706;2023-06-22T11:56:54;16.63;;;6.57;;
5209;SDS011;2624;48.048;11.706;2023-06-22T12:01:56;13.70;;;5.80;;
5209;SDS011;2624;48.048;11.706;2023-06-22T12:07:00;21.50;;;6.43;;
5209;SDS011;2624;48.048;11.706;2023-06-22T12:12:02;19.73;;;5.97;;
5209;SDS011;2624;48.048;11.706;2023-06-22T12:17:05;20.07;;;6.50;;
5209;SDS011;2624;48.048;11.706;2023-06-22T12:22:08;13.50;;;5.80;;
5209;SDS011;2624;48.048;11.706;2023-06-22T12:27:10;10.70;;;4.90;;
5209;SDS011;2624;48.048;11.706;2023-06-22T12:32:11;10.33;;;6.10;;
5209;SDS011;2624;48.048;11.706;2023-06-22T12:37:15;9.77;;;4.60;;
5209;SDS011;2624;48.048;11.706;2023-06-22T12:42:17;16.70;;;6.43;;
5209;SDS011;2624;48.048;11.706;2023-06-22T12:47:18;11.40;;;5.77;;
5209;SDS011;2624;48.048;11.706;2023-06-22T12:52:22;19.10;;;6.40;;
5209;SDS011;2624;48.048;11.706;2023-06-22T12:57:23;16.00;;;6.47;;
5209;SDS011;2624;48.048;11.706;2023-06-22T13:02:25;14.33;;;5.60;;
5209;SDS011;2624;48.048;11.706;2023-06-22T13:07:28;13.20;;;6.10;;
5209;SDS011;2624;48.048;11.706;2023-06-22T13:12:30;19.40;;;5.90;;
5209;SDS011;2624;48.048;11.706;2023-06-22T13:17:32;18.60;;;5.10;;
5209;SDS011;2624;48.048;11.706;2023-06-22T13:22:35;26.10;;;6.90;;
5209;SDS011;2624;48.048;11.706;2023-06-22T13:27:40;12.83;;;4.77;;
5209;SDS011;2624;48.048;11.706;2023-06-22T13:32:42;19.73;;;5.80;;
5209;SDS011;2624;48.048;11.706;2023-06-22T13:37:45;9.10;;;4.73;;
5209;SDS011;2624;48.048;11.706;2023-06-22T13:42:47;21.53;;;6.43;;
5209;SDS011;2624;48.048;11.706;2023-06-22T13:47:48;19.70;;;5.67;;
5209;SDS011;2624;48.048;11.706;2023-06-22T13:52:51;12.10;;;5.73;;
5209;SDS011;2624;48.048;11.706;2023-06-22T13:57:53;15.57;;;5.63;;
5209;SDS011;2624;48.048;11.706;2023-06-22T14:02:55;16.17;;;6.47;;
5209;SDS011;2624;48.048;11.706;2023-06-22T14:07:58;21.60;;;5.87;;
5209;SDS011;2624;48.048;11.706;2023-06-22T14:13:00;11.90;;;5.57;;
5209;SDS011;2624;48.048;11.706;2023-06-22T14:18:01;10.77;;;5.00;;
5209;SDS011;2624;48.048;11.706;2023-06-22T14:23:05;23.87;;;4.77;;
5209;SDS011;2624;48.048;11.706;2023-06-22T14:28:06;18.70;;;5.20;;
5209;SDS011;2624;48.048;11.706;2023-06-22T14:33:08;21.40;;;6.43;;
5209;SDS011;2624;48.048;11.706;2023-06-22T14:38:11;10.87;;;4.97;;
5209;SDS011;2624;48.048;11.706;2023-06-22T14:43:13;13.63;;;5.67;;
5209;SDS011;2624;48.048;11.706;2023-06-22T14:48:15;15.33;;;5.30;;
5209;SDS011;2624;48.048;11.706;2023-06-22T14:53:18;12.77;;;4.90;;
5209;SDS011;2624;48.048;11.706;2023-06-22T14:58:19;19.30;;;5.20;;
5209;SDS011;2624;48.048;11.706;2023-06-22T15:03:21;27.63;;;4.77;;
5209;SDS011;2624;48.048;11.706;2023-06-22T15:08:28;9.00;;;4.80;;
5209;SDS011;2624;48.048;11.706;2023-06-22T15:13:31;13.50;;;5.60;;
5209;SDS011;2624;48.048;11.706;2023-06-22T15:18:34;16.30;;;4.97;;
5209;SDS011;2624;48.048;11.706;2023-06-22T15:23:38;15.37;;;4.77;;
5209;SDS011;2624;48.048;11.706;2023-06-22T15:28:39;13.63;;;5.30;;
5209;SDS011;2624;48.048;11.706;2023-06-22T15:33:41;15.30;;;5.00;;
5209;SDS011;2624;48.048;11.706;2023-06-22T15:38:44;13.23;;;5.47;;
5209;SDS011;2624;48.048;11.706;2023-06-22T15:43:47;14.77;;;4.77;;
5209;SDS011;2624;48.048;11.706;2023-06-22T15:48:49;29.27;;;5.57;;
5209;SDS011;2624;48.048;11.706;2023-06-22T15:53:52;10.90;;;4.53;;
5209;SDS011;2624;48.048;11.706;2023-06-22T15:58:53;16.50;;;5.27;;
5209;SDS011;2624;48.048;11.706;2023-06-22T16:03:56;14.50;;;4.63;;
5209;SDS011;2624;48.048;11.706;2023-06-22T16:08:59;7.97;;;4.77;;
5209;SDS011;2624;48.048;11.706;2023-06-22T16:14:01;14.90;;;5.43;;
5209;SDS011;2624;48.048;11.706;2023-06-22T16:19:03;15.90;;;5.00;;
5209;SDS011;2624;48.048;11.706;2023-06-22T16:24:07;11.90;;;3.67;;
5209;SDS011;2624;48.048;11.706;2023-06-22T16:29:10;11.10;;;3.73;;
5209;SDS011;2624;48.048;11.706;2023-06-22T16:34:12;15.90;;;4.77;;
5209;SDS011;2624;48.048;11.706;2023-06-22T16:39:16;15.30;;;4.20;;
5209;SDS011;2624;48.048;11.706;2023-06-22T16:44:18;14.70;;;4.20;;
5209;SDS011;2624;48.048;11.706;2023-06-22T16:49:19;14.20;;;4.07;;
5209;SDS011;2624;48.048;11.706;2023-06-22T16:54:22;9.80;;;4.17;;
5209;SDS011;2624;48.048;11.706;2023-06-22T16:59:25;18.63;;;4.07;;
5209;SDS011;2624;48.048;11.706;2023-06-22T17:04:27;12.90;;;5.10;;
5209;SDS011;2624;48.048;11.706;2023-06-22T17:09:32;12.80;;;4.37;;
5209;SDS011;2624;48.048;11.706;2023-06-22T17:14:37;19.30;;;5.17;;
5209;SDS011;2624;48.048;11.706;2023-06-22T17:19:40;21.10;;;5.50;;
5209;SDS011;2624;48.048;11.706;2023-06-22T17:24:43;20.67;;;6.20;;
5209;SDS011;2624;48.048;11.706;2023-06-22T17:29:47;11.63;;;2.60;;
5209;SDS011;2624;48.048;11.706;2023-06-22T17:35:03;2.00;;;1.30;;
5209;SDS011;2624;48.048;11.706;2023-06-22T17:40:09;9.27;;;2.37;;
5209;SDS011;2624;48.048;11.706;2023-06-22T17:45:15;19.23;;;4.07;;
5209;SDS011;2624;48.048;11.706;2023-06-22T17:50:21;14.13;;;5.80;;
5209;SDS011;2624;48.048;11.706;2023-06-22T17:55:25;13.67;;;5.23;;
5209;SDS011;2624;48.048;11.706;2023-06-22T18:00:27;15.30;;;4.67;;
5209;SDS011;2624;48.048;11.706;2023-06-22T18:05:30;17.80;;;5.50;;
5209;SDS011;2624;48.048;11.706;2023-06-22T18:10:35;20.77;;;7.00;;
5209;SDS011;2624;48.048;11.706;2023-06-22T18:15:37;20.00;;;5.87;;
5209;SDS011;2624;48.048;11.706;2023-06-22T18:20:40;15.23;;;4.83;;
5209;SDS011;2624;48.048;11.706;2023-06-22T18:25:44;18.53;;;6.23;;
5209;SDS011;2624;48.048;11.706;2023-06-22T18:30:47;20.27;;;5.80;;
5209;SDS011;2624;48.048;11.706;2023-06-22T18:35:50;15.13;;;5.37;;
5209;SDS011;2624;48.048;11.706;2023-06-22T18:40:54;16.90;;;5.60;;
5209;SDS011;2624;48.048;11.706;2023-06-22T18:45:57;11.17;;;5.70;;
5209;SDS011;2624;48.048;11.706;2023-06-22T18:51:42;22.67;;;5.67;;
5209;SDS011;2624;48.048;11.706;2023-06-22T18:56:53;22.63;;;5.57;;
5209;SDS011;2624;48.048;11.706;2023-06-22T19:01:59;14.33;;;5.97;;
5209;SDS011;2624;48.048;11.706;2023-06-22T19:07:01;8.30;;;5.97;;
5209;SDS011;2624;48.048;11.706;2023-06-22T19:12:16;20.07;;;7.10;;
5209;SDS011;2624;48.048;11.706;2023-06-22T19:17:22;13.27;;;6.97;;
5209;SDS011;2624;48.048;11.706;2023-06-22T19:22:37;13.03;;;5.70;;
5209;SDS011;2624;48.048;11.706;2023-06-22T19:27:46;10.07;;;4.87;;
5209;SDS011;2624;48.048;11.706;2023-06-22T19:32:50;9.20;;;4.97;;
5209;SDS011;2624;48.048;11.706;2023-06-22T19:37:52;15.47;;;5.33;;
5209;SDS011;2624;48.048;11.706;2023-06-22T19:42:55;11.80;;;5.40;;
5209;SDS011;2624;48.048;11.706;2023-06-22T19:47:57;6.00;;;4.50;;
5209;SDS011;2624;48.048;11.706;2023-06-22T19:52:59;9.80;;;5.10;;
5209;SDS011;2624;48.048;11.706;2023-06-22T19:58:02;8.50;;;4.70;;
5209;SDS011;2624;48.048;11.706;2023-06-22T20:03:07;10.33;;;4.40;;
5209;SDS011;2624;48.048;11.706;2023-06-22T20:08:10;25.03;;;4.83;;
5209;SDS011;2624;48.048;11.706;2023-06-22T20:13:14;11.20;;;4.07;;
5209;SDS011;2624;48.048;11.706;2023-06-22T20:18:16;16.23;;;5.97;;
5209;SDS011;2624;48.048;11.706;2023-06-22T20:23:20;18.00;;;6.50;;
5209;SDS011;2624;48.048;11.706;2023-06-22T20:28:24;20.10;;;5.60;;
5209;SDS011;2624;48.048;11.706;2023-06-22T20:33:26;15.30;;;5.17;;
5209;SDS011;2624;48.048;11.706;2023-06-22T20:38:28;8.03;;;4.73;;
5209;SDS011;2624;48.048;11.706;2023-06-22T20:43:34;10.83;;;4.57;;
5209;SDS011;2624;48.048;11.706;2023-06-22T20:48:35;5.30;;;4.20;;
5209;SDS011;2624;48.048;11.706;2023-06-22T20:53:37;6.13;;;4.27;;
5209;SDS011;2624;48.048;11.706;2023-06-22T20:58:40;11.47;;;3.80;;
5209;SDS011;2624;48.048;11.706;2023-06-22T21:03:42;14.57;;;4.73;;
5209;SDS011;2624;48.048;11.706;2023-06-22T21:08:44;11.87;;;4.67;;
5209;SDS011;2624;48.048;11.706;2023-06-22T21:13:47;9.33;;;4.23;;
5209;SDS011;2624;48.048;11.706;2023-06-22T21:18:49;6.17;;;3.67;;
5209;SDS011;2624;48.048;11.706;2023-06-22T21:23:51;15.13;;;4.70;;
5209;SDS011;2624;48.048;11.706;2023-06-22T21:28:54;10.93;;;4.60;;
5209;SDS011;2624;48.048;11.706;2023-06-22T21:33:55;18.03;;;4.00;;
5209;SDS011;2624;48.048;11.706;2023-06-22T21:38:57;9.13;;;4.30;;
5209;SDS011;2624;48.048;11.706;2023-06-22T21:44:00;6.90;;;3.10;;
5209;SDS011;2624;48.048;11.706;2023-06-22T21:49:02;6.90;;;3.80;;
5209;SDS011;2624;48.048;11.706;2023-06-22T21:54:04;6.53;;;3.73;;
5209;SDS011;2624;48.048;11.706;2023-06-22T21:59:07;11.50;;;3.67;;
5209;SDS011;2624;48.048;11.706;2023-06-22T22:04:09;9.73;;;3.40;;
5209;SDS011;2624;48.048;11.706;2023-06-22T22:09:11;5.13;;;3.40;;
5209;SDS011;2624;48.048;11.706;2023-06-22T22:14:14;12.70;;;3.80;;
5209;SDS011;2624;48.048;11.706;2023-06-22T22:19:17;13.40;;;3.80;;
5209;SDS011;2624;48.048;11.706;2023-06-22T22:24:20;20.13;;;4.10;;
5209;SDS011;2624;48.048;11.706;2023-06-22T22:29:23;6.83;;;3.40;;
5209;SDS011;2624;48.048;11.706;2023-06-22T22:34:25;11.70;;;4.03;;
5209;SDS011;2624;48.048;11.706;2023-06-22T22:39:29;7.60;;;3.57;;
5209;SDS011;2624;48.048;11.706;2023-06-22T22:44:34;15.13;;;4.10;;
5209;SDS011;2624;48.048;11.706;2023-06-22T22:49:36;6.60;;;2.60;;
5209;SDS011;2624;48.048;11.706;2023-06-22T22:54:37;9.67;;;3.37;;
5209;SDS011;2624;48.048;11.706;2023-06-22T22:59:44;5.60;;;2.90;;
5209;SDS011;2624;48.048;11.706;2023-06-22T23:04:53;5.50;;;2.97;;
5209;SDS011;2624;48.048;11.706;2023-06-22T23:09:55;4.37;;;2.73;;
5209;SDS011;2624;48.048;11.706;2023-06-22T23:14:59;7.87;;;2.70;;
5209;SDS011;2624;48.048;11.706;2023-06-22T23:20:00;2.93;;;2.13;;
5209;SDS011;2624;48.048;11.706;2023-06-22T23:25:04;17.13;;;2.80;;
5209;SDS011;2624;48.048;11.706;2023-06-22T23:30:10;2.80;;;2.10;;
5209;SDS011;2624;48.048;11.706;2023-06-22T23:35:12;1.77;;;1.67;;
5209;SDS011;2624;48.048;11.706;2023-06-22T23:40:13;4.87;;;2.00;;
5209;SDS011;2624;48.048;11.706;2023-06-22T23:45:18;5.20;;;1.60;;
5209;SDS011;2624;48.048;11.706;2023-06-22T23:50:21;2.03;;;1.70;;
5209;SDS011;2624;48.048;11.706;2023-06-22T23:55:23;1.57;;;1.47;;
